This is the latest recevied weather packets stored in our database for station/object BV1EV-2. If no packets are shown the sender has not sent any weather packets the latest 10 day(s).
| Time | Temp. | Humidity | Pressure | Rain* | Wind** | Luminosity | Snow |
|---|---|---|---|---|---|---|---|
| 1778155068 | 32.22° C | 54% | 1010.4 hPa | - | - | - | - |
| 1778153868 | 32.22° C | 53% | 1010.1 hPa | - | - | - | - |
| 1778152667 | 32.22° C | 54% | 1010 hPa | - | - | - | - |
| 1778151467 | 32.22° C | 53% | 1009.8 hPa | - | - | - | - |
| 1778150268 | 31.67° C | 56% | 1009.6 hPa | - | - | - | - |
| 1778149068 | 32.22° C | 53% | 1009.5 hPa | - | - | - | - |
| 1778147868 | 32.22° C | 53% | 1009.4 hPa | - | - | - | - |
| 1778146668 | 32.22° C | 53% | 1009.2 hPa | - | - | - | - |
| 1778145468 | 32.22° C | 53% | 1009.1 hPa | - | - | - | - |
| 1778144268 | 32.22° C | 53% | 1008.7 hPa | - | - | - | - |
| 1778143067 | 31.67° C | 54% | 1008.6 hPa | - | - | - | - |
| 1778141867 | 31.67° C | 53% | 1008.2 hPa | - | - | - | - |
| 1778140667 | 31.67° C | 53% | 1008.1 hPa | - | - | - | - |
| 1778139468 | 31.67° C | 53% | 1008 hPa | - | - | - | - |
| 1778138268 | 31.11° C | 53% | 1008 hPa | - | - | - | - |
| 1778137068 | 31.11° C | 53% | 1008.1 hPa | - | - | - | - |
| 1778135868 | 31.11° C | 53% | 1008.1 hPa | - | - | - | - |
| 1778134668 | 31.11° C | 53% | 1008.3 hPa | - | - | - | - |
| 1778133468 | 31.11° C | 54% | 1008.4 hPa | - | - | - | - |
| 1778132268 | 30.56° C | 56% | 1008.6 hPa | - | - | - | - |
| 1778131067 | 30.56° C | 57% | 1008.7 hPa | - | - | - | - |
| 1778129868 | 30° C | 57% | 1008.9 hPa | - | - | - | - |
| 1778128668 | 30° C | 54% | 1009.3 hPa | - | - | - | - |
| 1778127468 | 29.44° C | 58% | 1009.5 hPa | - | - | - | - |
| 1778126267 | 28.33° C | 60% | 1009.8 hPa | - | - | - | - |
* Rain since midnight (hover to see other rain measurements)
** Current wind speed in m/s (hover to see current wind gust speed)